Time;durP1;ratioP1;P1;durP2;ratioP2;P2;SDS_P1;SDS_P2;PMS_P1;PMS_P2;Temp;Humidity;BMP_temperature;BMP_pressure;BME280_temperature;BME280_humidity;BME280_pressure;Samples;Min_cycle;Max_cycle;Signal;HPM_P1;HPM_P2
2024/01/06 00:00:10;;;;;;;;;;;;;;;-1.17;100.00;100064.47;5086482;28;19920;-76
2024/01/06 00:02:38;;;;;;;;;;;;;;;-1.06;100.00;100077.66;5050365;28;19919;-76
2024/01/06 00:05:03;;;;;;;;;;;;;;;-1.31;100.00;100047.09;5048379;28;19912;-76
2024/01/06 00:07:28;;;;;;;;;;;;;;;-1.30;100.00;100061.84;5065052;28;19923;-75
2024/01/06 00:09:54;;;;;;;;;;;;;;;-1.13;100.00;100076.41;5060042;28;19946;-76
2024/01/06 00:12:19;;;;;;;;;;;;;;;-1.17;100.00;100074.94;5086391;28;19999;-76
2024/01/06 00:14:45;;;;;;;;;;;;;;;-1.17;100.00;100069.69;5049760;28;19912;-76
2024/01/06 00:17:10;;;;;;;;;;;;;;;-1.09;100.00;100076.09;5048301;28;20375;-75
2024/01/06 00:19:36;;;;;;;;;;;;;;;-1.19;100.00;100061.13;5071348;28;19912;-76
2024/01/06 00:22:01;;;;;;;;;;;;;;;-1.22;100.00;100056.06;5049994;28;19916;-76
2024/01/06 00:24:26;;;;;;;;;;;;;;;-0.96;100.00;100073.50;5050601;28;19918;-75
2024/01/06 00:26:51;;;;;;;;;;;;;;;-1.02;100.00;100066.03;5050424;28;20609;-76
2024/01/06 00:29:17;;;;;;;;;;;;;;;-1.15;100.00;100039.00;5063340;28;20435;-76
2024/01/06 00:31:42;;;;;;;;;;;;;;;-0.95;100.00;100061.22;5059863;28;19916;-76
2024/01/06 00:34:07;;;;;;;;;;;;;;;-1.07;100.00;100041.94;5047909;28;20038;-76
2024/01/06 00:36:32;;;;;;;;;;;;;;;-0.98;100.00;100035.25;5048686;28;20441;-75
2024/01/06 00:38:57;;;;;;;;;;;;;;;-0.94;100.00;100037.50;5051701;28;19912;-76
2024/01/06 00:41:23;;;;;;;;;;;;;;;-0.71;100.00;100048.19;5068038;28;20006;-75
2024/01/06 00:43:48;;;;;;;;;;;;;;;-1.12;100.00;100008.19;5071266;28;19965;-76
2024/01/06 00:46:13;;;;;;;;;;;;;;;-0.89;100.00;100035.44;5090107;28;19965;-75
2024/01/06 00:48:38;;;;;;;;;;;;;;;-0.85;100.00;100044.75;5083604;28;19912;-76
2024/01/06 00:51:04;;;;;;;;;;;;;;;-0.70;100.00;100048.09;5071527;28;20445;-76
2024/01/06 00:53:29;;;;;;;;;;;;;;;-0.91;100.00;100018.97;5071242;28;19934;-76
2024/01/06 00:55:54;;;;;;;;;;;;;;;-0.93;100.00;100026.09;5051564;28;19973;-76
2024/01/06 00:58:19;;;;;;;;;;;;;;;-0.79;100.00;100032.19;5071503;28;20006;-76
2024/01/06 01:00:45;;;;;;;;;;;;;;;-0.83;100.00;100017.59;5071281;28;20401;-76
2024/01/06 01:03:10;;;;;;;;;;;;;;;-0.85;100.00;100004.59;5071257;28;19981;-75
2024/01/06 01:05:35;;;;;;;;;;;;;;;-1.03;100.00;99988.41;5054359;28;19951;-75
2024/01/06 01:08:00;;;;;;;;;;;;;;;-0.67;100.00;100019.03;5071513;28;20351;-76
2024/01/06 01:10:26;;;;;;;;;;;;;;;-0.69;100.00;100009.59;5089496;28;20313;-76
2024/01/06 01:12:51;;;;;;;;;;;;;;;-0.98;100.00;99975.81;5070378;28;19916;-76
2024/01/06 01:15:16;;;;;;;;;;;;;;;-0.77;100.00;99994.44;5088592;28;19919;-76
2024/01/06 01:17:42;;;;;;;;;;;;;;;-0.78;100.00;99992.72;5052504;28;19912;-76
2024/01/06 01:20:08;;;;;;;;;;;;;;;-0.71;100.00;99991.34;5070205;28;19916;-75
2024/01/06 01:22:33;;;;;;;;;;;;;;;-0.90;100.00;99983.13;5050933;28;19966;-76
2024/01/06 01:24:58;;;;;;;;;;;;;;;-0.85;100.00;99983.63;5070369;28;20712;-76
2024/01/06 01:27:23;;;;;;;;;;;;;;;-0.68;100.00;100008.66;5088801;28;19919;-75
2024/01/06 01:29:52;;;;;;;;;;;;;;;-0.66;100.00;100012.00;5052677;28;19934;-76
2024/01/06 01:32:18;;;;;;;;;;;;;;;-0.82;100.00;99987.81;5065341;28;19912;-76
2024/01/06 01:34:43;;;;;;;;;;;;;;;-0.86;100.00;99989.84;5070299;28;19916;-76
2024/01/06 01:37:08;;;;;;;;;;;;;;;-0.90;100.00;99980.50;5070600;28;20298;-76
2024/01/06 01:39:34;;;;;;;;;;;;;;;-0.85;100.00;99979.22;5054235;28;19912;-76
2024/01/06 01:41:59;;;;;;;;;;;;;;;-0.70;100.00;100000.09;5074077;28;19916;-76
2024/01/06 01:44:24;;;;;;;;;;;;;;;-0.61;100.00;100004.63;5054274;28;19964;-76
2024/01/06 01:46:49;;;;;;;;;;;;;;;-0.73;100.00;99976.69;5081063;28;20374;-76
2024/01/06 01:49:15;;;;;;;;;;;;;;;-0.77;100.00;99986.56;5070599;28;20505;-75
2024/01/06 01:51:41;;;;;;;;;;;;;;;-0.63;100.00;99998.69;5070380;28;19923;-75
2024/01/06 01:54:07;;;;;;;;;;;;;;;-0.78;100.00;99986.66;5069582;28;19934;-75
2024/01/06 01:56:35;;;;;;;;;;;;;;;-0.76;100.00;99985.59;5070147;28;20572;-75
2024/01/06 01:59:19;;;;;;;;;;;;;;;-0.75;100.00;99996.91;5070390;28;19912;-74
2024/01/06 02:01:45;;;;;;;;;;;;;;;-0.67;100.00;100003.31;5053308;28;20200;-74
2024/01/06 02:04:10;;;;;;;;;;;;;;;-0.84;100.00;99985.31;5069824;28;19912;-75
2024/01/06 02:06:35;;;;;;;;;;;;;;;-0.96;100.00;99970.44;5087815;28;19912;-76
2024/01/06 02:09:01;;;;;;;;;;;;;;;-0.87;100.00;99991.63;5049638;28;20394;-76
2024/01/06 02:11:27;;;;;;;;;;;;;;;-1.01;100.00;99981.25;5070017;28;19959;-76
2024/01/06 02:13:52;;;;;;;;;;;;;;;-0.63;100.00;100035.41;5069843;28;19920;-76
2024/01/06 02:16:17;;;;;;;;;;;;;;;-0.77;100.00;100017.16;5050022;28;20437;-76
2024/01/06 02:18:42;;;;;;;;;;;;;;;-0.71;100.00;100021.97;5069833;28;19912;-75
2024/01/06 02:21:08;;;;;;;;;;;;;;;-0.96;100.00;99958.19;5046579;28;20362;-75
2024/01/06 02:23:35;;;;;;;;;;;;;;;-0.91;100.00;99990.16;5069497;28;19916;-76
2024/01/06 02:26:00;;;;;;;;;;;;;;;-0.83;100.00;99983.53;5038967;28;19923;-75
2024/01/06 02:28:25;;;;;;;;;;;;;;;-0.70;100.00;100007.94;5050981;28;19912;-76
2024/01/06 02:30:51;;;;;;;;;;;;;;;-0.92;100.00;99982.38;5069418;28;19912;-76
2024/01/06 02:33:16;;;;;;;;;;;;;;;-0.91;100.00;99979.66;5087083;28;19912;-75
2024/01/06 02:35:42;;;;;;;;;;;;;;;-0.66;100.00;100012.88;5069146;28;19994;-75
2024/01/06 02:38:08;;;;;;;;;;;;;;;-0.74;100.00;100003.84;5052727;28;20433;-76
2024/01/06 02:40:33;;;;;;;;;;;;;;;-0.63;100.00;100014.44;5052766;28;20298;-75
2024/01/06 02:42:59;;;;;;;;;;;;;;;-0.77;100.00;100012.78;5052583;28;19914;-76
2024/01/06 02:45:24;;;;;;;;;;;;;;;-0.65;100.00;100025.00;5060919;28;20738;-75
2024/01/06 02:47:49;;;;;;;;;;;;;;;-0.61;100.00;100028.25;5087134;28;19916;-76
2024/01/06 02:50:14;;;;;;;;;;;;;;;-0.54;100.00;100026.88;5087259;28;20425;-75
2024/01/06 02:52:40;;;;;;;;;;;;;;;-0.80;100.00;99980.69;5052236;28;19915;-75
2024/01/06 02:55:05;;;;;;;;;;;;;;;-0.67;100.00;100008.53;5068539;28;20305;-74
2024/01/06 02:57:30;;;;;;;;;;;;;;;-0.56;100.00;100017.44;5060661;28;19916;-76
2024/01/06 02:59:56;;;;;;;;;;;;;;;-0.46;100.00;100023.72;5068470;28;19911;-76
2024/01/06 03:02:21;;;;;;;;;;;;;;;-0.55;100.00;100008.63;5048609;28;19924;-76
2024/01/06 03:04:47;;;;;;;;;;;;;;;-0.64;100.00;99989.13;5067893;28;20002;-76
2024/01/06 03:07:12;;;;;;;;;;;;;;;-0.64;100.00;100015.34;5068127;28;20402;-76
2024/01/06 03:09:38;;;;;;;;;;;;;;;-0.48;100.00;100036.91;5087024;28;19934;-76
2024/01/06 03:12:05;;;;;;;;;;;;;;;-0.42;100.00;100048.78;5052177;28;20040;-76
2024/01/06 03:14:31;;;;;;;;;;;;;;;-0.64;100.00;100017.97;5068225;28;19911;-75
2024/01/06 03:16:57;;;;;;;;;;;;;;;-0.66;100.00;100020.72;5051660;28;19912;-76
2024/01/06 03:19:25;;;;;;;;;;;;;;;-0.61;100.00;100038.72;5068784;28;19962;-76
2024/01/06 03:21:51;;;;;;;;;;;;;;;-0.48;100.00;100062.31;5051597;28;19969;-75
2024/01/06 03:24:16;;;;;;;;;;;;;;;-0.54;100.00;100047.88;5051174;28;19915;-76
2024/01/06 03:26:42;;;;;;;;;;;;;;;-0.62;100.00;100037.06;5052013;28;19912;-76
2024/01/06 03:29:07;;;;;;;;;;;;;;;-0.57;100.00;100061.16;5086496;28;20320;-76
2024/01/06 03:31:32;;;;;;;;;;;;;;;-0.59;100.00;100057.81;5051430;28;19912;-76
2024/01/06 03:33:58;;;;;;;;;;;;;;;-0.45;100.00;100081.28;5068108;28;19911;-76
2024/01/06 03:36:23;;;;;;;;;;;;;;;-0.41;100.00;100076.66;5069049;28;19916;-76
2024/01/06 03:38:48;;;;;;;;;;;;;;;-0.52;100.00;100059.06;5086117;28;19912;-76
2024/01/06 03:41:13;;;;;;;;;;;;;;;-0.64;100.00;100060.75;5044731;28;19955;-76
2024/01/06 03:43:39;;;;;;;;;;;;;;;-0.49;100.00;100087.72;5067071;28;20243;-76
2024/01/06 03:46:04;;;;;;;;;;;;;;;-0.48;100.00;100086.75;5068577;28;20060;-76
2024/01/06 03:48:30;;;;;;;;;;;;;;;-0.57;100.00;100079.53;5086476;28;19915;-75
2024/01/06 03:50:55;;;;;;;;;;;;;;;-0.65;100.00;100074.81;5067603;28;19916;-75
2024/01/06 03:53:20;;;;;;;;;;;;;;;-0.53;100.00;100073.13;5066284;28;19920;-75
2024/01/06 03:55:45;;;;;;;;;;;;;;;-0.50;100.00;100086.00;5049977;28;20303;-75
2024/01/06 03:58:11;;;;;;;;;;;;;;;-0.55;100.00;100066.31;5062700;28;19912;-76
2024/01/06 04:00:36;;;;;;;;;;;;;;;-0.62;100.00;100068.53;5049677;28;19954;-75
2024/01/06 04:03:02;;;;;;;;;;;;;;;-0.48;100.00;100086.75;5068492;28;20371;-76
2024/01/06 04:05:27;;;;;;;;;;;;;;;-0.41;100.00;100092.41;5086178;28;20315;-76
2024/01/06 04:07:52;;;;;;;;;;;;;;;-0.24;100.00;100106.94;5086346;28;19912;-76
2024/01/06 04:10:18;;;;;;;;;;;;;;;-0.38;100.00;100086.09;5086561;28;19926;-76
2024/01/06 04:12:43;;;;;;;;;;;;;;;-0.34;100.00;100093.66;5065413;28;20420;-76
2024/01/06 04:15:08;;;;;;;;;;;;;;;-0.73;100.00;100029.94;5068289;28;19908;-75
2024/01/06 04:17:33;;;;;;;;;;;;;;;-0.60;100.00;100079.75;5053476;28;19912;-76
2024/01/06 04:19:59;;;;;;;;;;;;;;;-0.40;100.00;100124.72;5071984;28;19911;-76
2024/01/06 04:22:24;;;;;;;;;;;;;;;-0.37;100.00;100103.53;5090359;28;19918;-76
2024/01/06 04:24:49;;;;;;;;;;;;;;;-0.50;100.00;100103.53;5087511;28;19961;-76
2024/01/06 04:27:15;;;;;;;;;;;;;;;-0.77;100.00;100074.81;5063806;28;20378;-76
2024/01/06 04:29:40;;;;;;;;;;;;;;;-0.54;100.00;100123.03;5052747;28;20375;-75
2024/01/06 04:32:07;;;;;;;;;;;;;;;-0.52;100.00;100124.59;5082104;28;19927;-75
2024/01/06 04:34:32;;;;;;;;;;;;;;;-0.54;100.00;100133.53;5053984;28;19920;-76
2024/01/06 04:36:57;;;;;;;;;;;;;;;-0.68;100.00;100116.13;5071928;28;19912;-76
2024/01/06 04:39:23;;;;;;;;;;;;;;;-0.48;100.00;100160.19;5072349;28;19915;-76
2024/01/06 04:41:49;;;;;;;;;;;;;;;-0.66;100.00;100132.59;5071744;28;19912;-76
2024/01/06 04:44:14;;;;;;;;;;;;;;;-0.69;100.00;100152.00;5054763;28;19916;-76
2024/01/06 04:46:39;;;;;;;;;;;;;;;-0.61;100.00;100169.00;5089724;28;19939;-76
2024/01/06 04:49:04;;;;;;;;;;;;;;;-0.94;100.00;100150.19;5089739;28;19916;-75
2024/01/06 04:51:30;;;;;;;;;;;;;;;-0.67;100.00;100199.09;5071719;28;19912;-75
2024/01/06 04:53:55;;;;;;;;;;;;;;;-0.56;100.00;100214.09;5054167;28;19919;-76
2024/01/06 04:56:20;;;;;;;;;;;;;;;-0.60;100.00;100218.72;5071497;28;19920;-75
2024/01/06 04:58:45;;;;;;;;;;;;;;;-0.50;100.00;100235.50;5071329;28;19908;-76
2024/01/06 05:01:11;;;;;;;;;;;;;;;-0.68;100.00;100210.50;5065454;28;19916;-76
2024/01/06 05:03:37;;;;;;;;;;;;;;;-0.81;100.00;100199.19;5070977;28;19918;-76
2024/01/06 05:06:02;;;;;;;;;;;;;;;-0.72;100.00;100233.50;5071084;28;19915;-76
2024/01/06 05:08:30;;;;;;;;;;;;;;;-0.76;100.00;100228.56;5089351;28;19950;-76
2024/01/06 05:10:55;;;;;;;;;;;;;;;-0.74;100.00;100237.16;5067677;28;19998;-76
2024/01/06 05:13:20;;;;;;;;;;;;;;;-0.83;100.00;100240.38;5065128;28;20426;-76
2024/01/06 05:15:46;;;;;;;;;;;;;;;-0.43;100.00;100283.13;5089192;28;20010;-76
2024/01/06 05:18:11;;;;;;;;;;;;;;;-0.80;100.00;100227.06;5089321;28;19938;-75
2024/01/06 05:20:40;;;;;;;;;;;;;;;-0.79;100.00;100240.09;5089025;28;19912;-76
2024/01/06 05:23:06;;;;;;;;;;;;;;;-0.72;100.00;100257.09;5062754;28;19915;-76
2024/01/06 05:25:31;;;;;;;;;;;;;;;-0.69;100.00;100262.09;5070838;28;20397;-75
2024/01/06 05:27:56;;;;;;;;;;;;;;;-0.94;100.00;100246.31;5070492;28;19972;-76
2024/01/06 05:30:21;;;;;;;;;;;;;;;-0.79;100.00;100278.56;5053642;28;19912;-76
2024/01/06 05:32:47;;;;;;;;;;;;;;;-0.90;100.00;100274.03;5088563;28;19911;-76
2024/01/06 05:35:12;;;;;;;;;;;;;;;-0.66;100.00;100313.50;5088665;28;19911;-76
2024/01/06 05:37:37;;;;;;;;;;;;;;;-0.73;100.00;100304.34;5087687;28;20359;-76
2024/01/06 05:40:03;;;;;;;;;;;;;;;-0.76;100.00;100312.44;5070619;28;19916;-76
2024/01/06 05:42:28;;;;;;;;;;;;;;;-0.65;100.00;100331.75;5070579;28;19919;-76
2024/01/06 05:44:54;;;;;;;;;;;;;;;-1.01;100.00;100300.06;5070259;28;20374;-76
2024/01/06 05:47:19;;;;;;;;;;;;;;;-0.81;100.00;100336.31;5088871;28;19915;-76
2024/01/06 05:49:45;;;;;;;;;;;;;;;-0.67;100.00;100359.88;5070345;28;20019;-75
2024/01/06 05:52:10;;;;;;;;;;;;;;;-0.62;100.00;100374.47;5070529;28;19943;-76
2024/01/06 05:54:35;;;;;;;;;;;;;;;-0.70;100.00;100361.84;5070210;28;19911;-76
2024/01/06 05:57:00;;;;;;;;;;;;;;;-0.50;100.00;100387.59;5070322;28;20009;-76
2024/01/06 05:59:26;;;;;;;;;;;;;;;-0.64;100.00;100372.75;5067939;28;19912;-76
2024/01/06 06:01:52;;;;;;;;;;;;;;;-0.50;100.00;100384.13;5051670;28;19919;-76
2024/01/06 06:04:18;;;;;;;;;;;;;;;-0.68;100.00;100373.06;5070142;28;20020;-76
2024/01/06 06:06:44;;;;;;;;;;;;;;;-0.57;100.00;100390.72;5046814;28;20481;-76
2024/01/06 06:09:09;;;;;;;;;;;;;;;-0.68;100.00;100380.94;5062002;28;19923;-76
2024/01/06 06:11:35;;;;;;;;;;;;;;;-0.60;100.00;100404.88;5068904;28;20008;-76
2024/01/06 06:14:02;;;;;;;;;;;;;;;-0.72;100.00;100398.66;5068384;28;19908;-76
2024/01/06 06:16:28;;;;;;;;;;;;;;;-0.73;100.00;100398.75;5053499;28;19919;-75
2024/01/06 06:18:53;;;;;;;;;;;;;;;-0.68;100.00;100404.53;5086696;28;20371;-76
2024/01/06 06:21:18;;;;;;;;;;;;;;;-0.81;100.00;100398.41;5068534;28;19915;-76
2024/01/06 06:23:44;;;;;;;;;;;;;;;-0.68;100.00;100404.53;5087451;28;19912;-75
2024/01/06 06:26:09;;;;;;;;;;;;;;;-0.76;100.00;100407.66;5066752;28;19955;-76
2024/01/06 06:28:34;;;;;;;;;;;;;;;-0.81;100.00;100430.69;5084384;28;20011;-75
2024/01/06 06:31:00;;;;;;;;;;;;;;;-0.87;100.00;100442.41;5065878;28;19963;-75
2024/01/06 06:33:26;;;;;;;;;;;;;;;-0.77;100.00;100460.16;5069285;28;20453;-76
2024/01/06 06:35:51;;;;;;;;;;;;;;;-0.76;100.00;100467.94;5066665;28;19909;-76
2024/01/06 06:38:16;;;;;;;;;;;;;;;-0.62;100.00;100482.81;5087863;28;19918;-76
2024/01/06 06:40:41;;;;;;;;;;;;;;;-0.80;100.00;100473.47;5087120;28;19919;-76
2024/01/06 06:43:08;;;;;;;;;;;;;;;-0.83;100.00;100485.00;5067922;28;19962;-76
2024/01/06 06:45:33;;;;;;;;;;;;;;;-0.64;100.00;100516.13;5068121;28;19908;-76
2024/01/06 06:47:58;;;;;;;;;;;;;;;-0.47;100.00;100528.19;5069207;28;20310;-76
2024/01/06 06:50:23;;;;;;;;;;;;;;;-0.47;100.00;100531.66;5069743;28;19926;-76
2024/01/06 06:52:49;;;;;;;;;;;;;;;-0.53;100.00;100516.31;5087430;28;19912;-76
2024/01/06 06:55:14;;;;;;;;;;;;;;;-0.55;100.00;100525.22;5052932;28;19942;-76
2024/01/06 06:57:39;;;;;;;;;;;;;;;-0.80;100.00;100510.16;5069153;28;20006;-76
2024/01/06 07:00:07;;;;;;;;;;;;;;;-0.90;100.00;100497.63;5069327;28;19981;-76
2024/01/06 07:02:32;;;;;;;;;;;;;;;-0.59;100.00;100544.69;5069506;28;19919;-76
2024/01/06 07:04:58;;;;;;;;;;;;;;;-0.70;100.00;100537.50;5069312;28;19907;-76
2024/01/06 07:07:23;;;;;;;;;;;;;;;-0.63;100.00;100533.56;5053068;28;19965;-76
2024/01/06 07:09:48;;;;;;;;;;;;;;;-0.59;100.00;100527.19;5051346;28;19919;-77
2024/01/06 07:12:14;;;;;;;;;;;;;;;-0.75;100.00;100529.94;5051097;28;20405;-76
2024/01/06 07:14:39;;;;;;;;;;;;;;;-0.50;100.00;100558.06;5084153;28;19957;-76
2024/01/06 07:17:04;;;;;;;;;;;;;;;-0.52;100.00;100538.97;5087229;28;19962;-76
2024/01/06 07:19:31;;;;;;;;;;;;;;;-0.62;100.00;100540.50;5087793;28;20378;-76
2024/01/06 07:21:56;;;;;;;;;;;;;;;-0.66;100.00;100536.38;5067202;28;19920;-76
2024/01/06 07:24:22;;;;;;;;;;;;;;;-0.75;100.00;100531.69;5068732;28;19911;-76
2024/01/06 07:26:47;;;;;;;;;;;;;;;-0.67;100.00;100543.41;5052270;28;19908;-76
2024/01/06 07:29:12;;;;;;;;;;;;;;;-0.68;100.00;100533.00;5069149;28;20288;-76
2024/01/06 07:31:37;;;;;;;;;;;;;;;-0.71;100.00;100525.31;5069105;28;19908;-76
2024/01/06 07:34:03;;;;;;;;;;;;;;;-0.82;100.00;100519.91;5068395;28;19916;-76
2024/01/06 07:36:28;;;;;;;;;;;;;;;-0.87;100.00;100518.44;5052372;28;19915;-76
2024/01/06 07:38:54;;;;;;;;;;;;;;;-0.95;100.00;100518.03;5086840;28;20667;-76
2024/01/06 07:41:19;;;;;;;;;;;;;;;-0.67;100.00;100550.44;5086892;28;20045;-76
2024/01/06 07:43:45;;;;;;;;;;;;;;;-0.86;100.00;100530.59;5086581;28;19916;-75
2024/01/06 07:46:10;;;;;;;;;;;;;;;-0.85;100.00;100539.28;5069533;28;19916;-76
2024/01/06 07:48:35;;;;;;;;;;;;;;;-0.90;100.00;100547.44;5051568;28;19931;-75
2024/01/06 07:51:01;;;;;;;;;;;;;;;-0.71;100.00;100556.78;5086442;28;20015;-76
2024/01/06 07:53:27;;;;;;;;;;;;;;;-0.85;100.00;100561.09;5086144;28;19947;-76
2024/01/06 07:55:52;;;;;;;;;;;;;;;-0.66;100.00;100586.19;5068423;28;19916;-76
2024/01/06 07:58:18;;;;;;;;;;;;;;;-0.76;100.00;100575.41;5068186;28;20022;-76
2024/01/06 08:00:43;;;;;;;;;;;;;;;-0.76;100.00;100574.59;5068405;28;20393;-76
2024/01/06 08:03:11;;;;;;;;;;;;;;;-0.77;100.00;100588.63;5068428;28;19914;-76
2024/01/06 08:05:36;;;;;;;;;;;;;;;-0.55;100.00;100604.72;5068521;28;19972;-76
2024/01/06 08:08:01;;;;;;;;;;;;;;;-0.65;100.00;100598.38;5068392;28;19916;-76
2024/01/06 08:10:26;;;;;;;;;;;;;;;-0.62;100.00;100606.03;5068464;28;19908;-76
2024/01/06 08:12:52;;;;;;;;;;;;;;;-0.61;100.00;100599.84;5068062;28;19919;-76
2024/01/06 08:15:17;;;;;;;;;;;;;;;-0.78;100.00;100589.56;5068055;28;19986;-76
2024/01/06 08:17:42;;;;;;;;;;;;;;;-0.87;100.00;100588.34;5068166;28;19916;-76
2024/01/06 08:20:08;;;;;;;;;;;;;;;-0.85;100.00;100605.66;5068256;28;19930;-76
2024/01/06 08:22:33;;;;;;;;;;;;;;;-0.85;100.00;100589.94;5068400;28;20419;-77
2024/01/06 08:24:59;;;;;;;;;;;;;;;-0.93;100.00;100584.31;5051122;28;19916;-76
2024/01/06 08:27:24;;;;;;;;;;;;;;;-0.83;100.00;100605.56;5079134;28;19923;-76
2024/01/06 08:29:50;;;;;;;;;;;;;;;-0.81;100.00;100602.88;5045156;28;19963;-76
2024/01/06 08:32:16;;;;;;;;;;;;;;;-0.68;100.00;100609.03;5068125;28;19912;-76
2024/01/06 08:34:41;;;;;;;;;;;;;;;-0.70;100.00;100617.00;5068073;28;19912;-76
2024/01/06 08:37:06;;;;;;;;;;;;;;;-0.58;100.00;100606.72;5086445;28;19935;-76
2024/01/06 08:39:32;;;;;;;;;;;;;;;-0.75;100.00;100577.13;5068534;28;20378;-76
2024/01/06 08:41:57;;;;;;;;;;;;;;;-0.71;100.00;100590.88;5043412;28;19916;-76
2024/01/06 08:44:22;;;;;;;;;;;;;;;-0.61;100.00;100597.22;5067871;28;19912;-76
2024/01/06 08:46:48;;;;;;;;;;;;;;;-0.54;100.00;100605.56;5050834;28;19908;-76
2024/01/06 08:49:13;;;;;;;;;;;;;;;-0.51;100.00;100603.59;5056669;28;20307;-76
2024/01/06 08:51:38;;;;;;;;;;;;;;;-0.83;100.00;100565.41;5039283;28;19939;-77
2024/01/06 08:54:05;;;;;;;;;;;;;;;-0.79;100.00;100580.88;5051182;28;19920;-76
2024/01/06 08:56:30;;;;;;;;;;;;;;;-0.73;100.00;100583.09;5067573;28;19999;-76
2024/01/06 08:58:57;;;;;;;;;;;;;;;-0.55;100.00;100596.84;5065867;28;20002;-76
2024/01/06 09:01:22;;;;;;;;;;;;;;;-0.71;100.00;100589.09;5086089;28;19915;-76
2024/01/06 09:03:47;;;;;;;;;;;;;;;-0.38;100.00;100626.44;5068377;28;19912;-76
2024/01/06 09:06:13;;;;;;;;;;;;;;;-0.39;100.00;100614.28;5071877;28;19921;-76
2024/01/06 09:08:38;;;;;;;;;;;;;;;-0.48;100.00;100606.03;5071542;28;19955;-76
2024/01/06 09:11:03;;;;;;;;;;;;;;;-0.55;100.00;100591.63;5089571;28;20816;-77
2024/01/06 09:13:29;;;;;;;;;;;;;;;-0.61;100.00;100599.84;5071116;28;19951;-76
2024/01/06 09:15:54;;;;;;;;;;;;;;;-0.59;100.00;100600.59;5071312;28;19916;-75
2024/01/06 09:18:19;;;;;;;;;;;;;;;-0.52;100.00;100608.94;5071396;28;19916;-75
2024/01/06 09:20:47;;;;;;;;;;;;;;;-0.66;100.00;100607.16;5071056;28;20294;-75
2024/01/06 09:23:12;;;;;;;;;;;;;;;-0.62;100.00;100616.53;5054008;28;20512;-75
2024/01/06 09:25:39;;;;;;;;;;;;;;;-0.41;100.00;100647.63;5071040;28;19922;-76
2024/01/06 09:28:05;;;;;;;;;;;;;;;0.18;100.00;100706.03;5069963;28;19916;-76
2024/01/06 09:30:30;;;;;;;;;;;;;;;-0.25;100.00;100638.72;5071088;28;19919;-76
2024/01/06 09:32:56;;;;;;;;;;;;;;;-0.36;100.00;100620.16;5089059;28;20350;-76
2024/01/06 09:35:21;;;;;;;;;;;;;;;-0.41;100.00;100616.16;5045955;28;19918;-76
2024/01/06 09:37:46;;;;;;;;;;;;;;;-0.56;100.00;100602.19;5088776;28;19911;-75
2024/01/06 09:40:15;;;;;;;;;;;;;;;-0.64;100.00;100590.41;5070552;28;20294;-76
2024/01/06 09:42:40;;;;;;;;;;;;;;;-0.72;100.00;100613.63;5088791;28;19916;-76
2024/01/06 09:45:06;;;;;;;;;;;;;;;-0.72;100.00;100621.50;5070142;28;20295;-76
2024/01/06 09:47:33;;;;;;;;;;;;;;;-0.64;100.00;100626.25;5070463;28;20377;-76
2024/01/06 09:50:00;;;;;;;;;;;;;;;-0.67;100.00;100635.16;5070335;28;19916;-76
2024/01/06 09:52:26;;;;;;;;;;;;;;;-0.57;100.00;100635.44;5070726;28;19912;-77
2024/01/06 09:54:53;;;;;;;;;;;;;;;-0.65;100.00;100642.94;5069944;28;19915;-76
2024/01/06 09:57:18;;;;;;;;;;;;;;;-0.41;100.00;100666.00;5088466;28;19943;-76
2024/01/06 09:59:46;;;;;;;;;;;;;;;-0.58;100.00;100646.06;5088351;28;20724;-76
2024/01/06 10:02:16;;;;;;;;;;;;;;;-0.35;100.00;100678.72;5088874;28;19958;-75
2024/01/06 10:04:42;;;;;;;;;;;;;;;-0.35;100.00;100670.84;5070529;28;19959;-76
2024/01/06 10:07:07;;;;;;;;;;;;;;;-0.46;100.00;100651.38;5089482;28;19954;-76
2024/01/06 10:09:32;;;;;;;;;;;;;;;-0.41;100.00;100664.22;5070643;28;19969;-76
2024/01/06 10:11:59;;;;;;;;;;;;;;;-0.46;100.00;100669.72;5088745;28;19915;-76
2024/01/06 10:14:24;;;;;;;;;;;;;;;-0.64;100.00;100655.94;5070964;28;20446;-75
2024/01/06 10:16:50;;;;;;;;;;;;;;;-0.64;100.00;100669.06;5070006;28;19912;-75
2024/01/06 10:19:16;;;;;;;;;;;;;;;-0.41;100.00;100694.84;5070002;28;19912;-76
2024/01/06 10:21:41;;;;;;;;;;;;;;;-0.66;100.00;100668.34;5069904;28;19916;-76
2024/01/06 10:24:08;;;;;;;;;;;;;;;-0.50;100.00;100673.47;5069214;28;20255;-75
2024/01/06 10:26:33;;;;;;;;;;;;;;;-0.23;100.00;100709.47;5083891;28;20613;-76
2024/01/06 10:28:59;;;;;;;;;;;;;;;-0.57;100.00;100664.28;5068996;28;19912;-75
2024/01/06 10:31:25;;;;;;;;;;;;;;;-0.59;100.00;100653.06;5088367;28;20451;-77
2024/01/06 10:33:50;;;;;;;;;;;;;;;-0.73;100.00;100651.25;5078957;28;19916;-78
2024/01/06 10:36:15;;;;;;;;;;;;;;;-0.58;100.00;100677.50;5045228;28;20374;-76
2024/01/06 10:38:41;;;;;;;;;;;;;;;-0.61;100.00;100677.69;5069520;28;19918;-76
2024/01/06 10:41:09;;;;;;;;;;;;;;;-0.43;100.00;100697.56;5058087;28;19915;-75
2024/01/06 10:43:38;;;;;;;;;;;;;;;-0.55;100.00;100679.94;5066260;28;19916;-76
2024/01/06 10:46:04;;;;;;;;;;;;;;;-0.49;100.00;100685.66;5087096;28;19908;-76
2024/01/06 10:48:34;;;;;;;;;;;;;;;-0.56;100.00;100683.47;5065223;28;19912;-75
2024/01/06 10:51:00;;;;;;;;;;;;;;;-0.37;100.00;100702.44;5068470;28;19981;-75
2024/01/06 10:53:26;;;;;;;;;;;;;;;-0.40;100.00;100697.34;5051991;28;20263;-76
2024/01/06 10:55:52;;;;;;;;;;;;;;;-0.55;100.00;100670.28;5047039;28;19919;-76
2024/01/06 10:58:18;;;;;;;;;;;;;;;-0.59;100.00;100674.03;5087108;28;19912;-76
2024/01/06 11:00:43;;;;;;;;;;;;;;;-0.31;100.00;100706.44;5068924;28;19920;-76
2024/01/06 11:03:09;;;;;;;;;;;;;;;-0.34;100.00;100697.00;5049178;28;19990;-76
2024/01/06 11:05:36;;;;;;;;;;;;;;;-0.24;100.00;100689.41;5064052;28;19947;-75
2024/01/06 11:08:01;;;;;;;;;;;;;;;-0.47;100.00;100660.19;5043679;28;19912;-75
2024/01/06 11:10:29;;;;;;;;;;;;;;;-0.43;100.00;100676.56;5060692;28;19918;-76
2024/01/06 11:13:11;;;;;;;;;;;;;;;-0.51;100.00;100668.34;5060359;28;19927;-74
2024/01/06 11:15:44;;;;;;;;;;;;;;;-0.60;100.00;100661.88;5068784;28;20267;-75
2024/01/06 11:18:09;;;;;;;;;;;;;;;-0.61;100.00;100678.50;5086701;28;19915;-75
2024/01/06 11:20:34;;;;;;;;;;;;;;;-0.78;100.00;100671.66;5086683;28;19926;-74
2024/01/06 11:23:21;;;;;;;;;;;;;;;-0.49;100.00;100721.53;5068446;28;20629;-75
2024/01/06 11:25:47;;;;;;;;;;;;;;;-0.20;100.00;100734.69;5068408;28;19944;-76
2024/01/06 11:28:12;;;;;;;;;;;;;;;-0.51;100.00;100699.81;5085970;28;20841;-76
2024/01/06 11:30:38;;;;;;;;;;;;;;;-0.31;100.00;100695.97;5068363;28;19919;-76
2024/01/06 11:33:04;;;;;;;;;;;;;;;-0.48;100.00;100676.00;5068496;28;20414;-75
2024/01/06 11:35:29;;;;;;;;;;;;;;;-0.41;100.00;100690.44;5068429;28;19912;-75
2024/01/06 11:37:56;;;;;;;;;;;;;;;-0.68;100.00;100666.72;5065806;28;19915;-76
2024/01/06 11:40:23;;;;;;;;;;;;;;;-0.69;100.00;100654.56;5051924;28;19908;-75
2024/01/06 11:42:56;;;;;;;;;;;;;;;-0.46;100.00;100685.47;5086362;28;19916;-75
2024/01/06 11:45:24;;;;;;;;;;;;;;;-0.34;100.00;100693.53;5060954;28;19946;-76
2024/01/06 11:47:51;;;;;;;;;;;;;;;-0.51;100.00;100684.06;5068513;28;19908;-75
2024/01/06 11:50:17;;;;;;;;;;;;;;;-0.69;100.00;100647.53;5060248;28;20393;-76
2024/01/06 11:52:42;;;;;;;;;;;;;;;-0.70;100.00;100647.63;5068343;28;19912;-75
2024/01/06 11:55:09;;;;;;;;;;;;;;;-0.63;100.00;100669.94;5067747;28;20717;-76
2024/01/06 11:57:34;;;;;;;;;;;;;;;-0.32;100.00;100689.03;5068163;28;20026;-76
2024/01/06 11:59:59;;;;;;;;;;;;;;;-0.33;100.00;100682.09;5051458;28;20002;-76
2024/01/06 12:02:25;;;;;;;;;;;;;;;-0.51;100.00;100642.94;5068355;28;19916;-76
2024/01/06 12:04:53;;;;;;;;;;;;;;;-0.51;100.00;100637.69;5067927;28;19919;-76
2024/01/06 12:07:24;;;;;;;;;;;;;;;-0.16;100.00;100710.78;5040229;28;19916;-75
2024/01/06 12:10:02;;;;;;;;;;;;;;;0.60;100.00;100794.41;5068236;28;19912;-76
2024/01/06 12:12:28;;;;;;;;;;;;;;;-0.02;100.00;100678.44;5067266;28;20482;-76
2024/01/06 12:14:53;;;;;;;;;;;;;;;-0.13;100.00;100650.22;5067126;28;19916;-76
2024/01/06 12:17:20;;;;;;;;;;;;;;;-0.21;100.00;100631.50;5067873;28;20293;-75
2024/01/06 12:19:46;;;;;;;;;;;;;;;-0.36;100.00;100608.84;5085829;28;19919;-76